createdAt,value
2019-05-18T00:02:32.911Z,9.80
2019-05-18T00:05:02.134Z,9.40
2019-05-18T00:07:38.325Z,10.37
2019-05-18T00:10:07.668Z,8.80
2019-05-18T00:12:42.976Z,10.67
2019-05-18T00:15:12.498Z,9.50
2019-05-18T00:17:48.681Z,9.83
2019-05-18T00:20:17.807Z,10.00
2019-05-18T00:22:53.805Z,9.50
2019-05-18T00:25:30.427Z,9.80
2019-05-18T00:28:06.271Z,9.40
2019-05-18T00:30:35.481Z,10.40
2019-05-18T00:33:04.666Z,9.90
2019-05-18T00:35:40.951Z,9.00
2019-05-18T00:38:10.197Z,8.80
2019-05-18T00:40:39.342Z,8.27
2019-05-18T00:43:14.662Z,7.97
2019-05-18T00:45:50.339Z,7.43
2019-05-18T00:48:19.453Z,7.70
2019-05-18T00:50:48.667Z,7.03
2019-05-18T00:53:24.803Z,7.90
2019-05-18T00:56:00.936Z,7.70
2019-05-18T00:58:37.157Z,7.63
2019-05-18T01:01:06.284Z,7.60
2019-05-18T01:03:41.763Z,7.47
2019-05-18T01:06:10.794Z,8.80
2019-05-18T01:08:46.542Z,8.43
2019-05-18T01:11:15.689Z,7.27
2019-05-18T01:13:51.800Z,8.00
2019-05-18T01:16:20.914Z,7.57
2019-05-18T01:18:56.177Z,8.13
2019-05-18T01:21:25.384Z,8.33
2019-05-18T01:24:01.335Z,8.07
2019-05-18T01:26:37.429Z,7.40
2019-05-18T01:29:13.739Z,8.83
2019-05-18T01:31:42.956Z,8.47
2019-05-18T01:34:19.125Z,8.80
2019-05-18T01:36:48.254Z,7.13
2019-05-18T01:39:23.457Z,6.90
2019-05-18T01:41:52.653Z,7.80
2019-05-18T01:44:21.892Z,8.13
2019-05-18T01:46:57.666Z,8.60
2019-05-18T01:49:26.821Z,8.57
2019-05-18T01:51:55.962Z,8.60
2019-05-18T01:54:31.502Z,8.30
2019-05-18T01:57:07.652Z,9.17
2019-05-18T01:59:43.090Z,8.43
2019-05-18T02:02:12.295Z,8.50
2019-05-18T02:04:47.771Z,7.87
2019-05-18T02:07:16.925Z,8.70
2019-05-18T02:09:53.122Z,8.70
2019-05-18T02:12:22.350Z,8.80
2019-05-18T02:14:58.633Z,8.20
2019-05-18T02:17:27.821Z,8.80
2019-05-18T02:20:03.936Z,8.43
2019-05-18T02:22:33.145Z,8.70
2019-05-18T02:25:02.286Z,8.85
2019-05-18T02:27:38.136Z,8.38
2019-05-18T02:30:08.686Z,8.00
2019-05-18T02:32:37.982Z,9.13
2019-05-18T02:35:14.283Z,9.30
2019-05-18T02:37:43.538Z,8.70
2019-05-18T02:40:19.012Z,9.15
2019-05-18T02:42:48.122Z,8.20
2019-05-18T02:45:24.235Z,8.75
2019-05-18T02:47:53.339Z,9.63
2019-05-18T02:50:28.589Z,9.40
2019-05-18T02:52:57.755Z,10.03
2019-05-18T02:55:39.797Z,9.68
2019-05-18T02:58:08.926Z,9.35
2019-05-18T03:00:44.605Z,9.78
2019-05-18T03:03:13.750Z,9.53
2019-05-18T03:05:50.496Z,9.15
2019-05-18T03:08:19.759Z,9.20
2019-05-18T03:10:56.101Z,10.60
2019-05-18T03:13:25.233Z,9.68
2019-05-18T03:15:54.364Z,9.35
2019-05-18T03:18:30.481Z,9.68
2019-05-18T03:20:59.930Z,9.60
2019-05-18T03:23:35.278Z,9.48
2019-05-18T03:26:04.481Z,9.10
2019-05-18T03:28:39.824Z,9.67
2019-05-18T03:31:15.684Z,8.53
2019-05-18T03:33:51.430Z,9.10
2019-05-18T03:36:20.605Z,9.15
2019-05-18T03:38:49.713Z,9.47
2019-05-18T03:41:25.527Z,8.67
2019-05-18T03:43:57.788Z,9.03
2019-05-18T03:46:27.055Z,10.73
2019-05-18T03:49:02.519Z,9.20
2019-05-18T03:51:38.769Z,9.00
2019-05-18T03:54:07.880Z,8.73
2019-05-18T03:56:50.461Z,8.60
2019-05-18T03:59:19.552Z,8.33
2019-05-18T04:01:48.695Z,9.27
2019-05-18T04:04:24.864Z,8.60
2019-05-18T04:06:54.024Z,9.53
2019-05-18T04:09:30.191Z,9.20
2019-05-18T04:11:59.392Z,10.50
2019-05-18T04:14:35.153Z,8.57
2019-05-18T04:17:04.326Z,9.80
2019-05-18T04:19:46.530Z,11.37
2019-05-18T04:22:11.297Z,10.50
2019-05-18T04:24:40.502Z,10.20
2019-05-18T04:27:16.775Z,10.07
2019-05-18T04:29:52.299Z,9.30
2019-05-18T04:32:34.683Z,8.37
2019-05-18T04:35:03.822Z,9.67
2019-05-18T04:37:33.049Z,9.70
2019-05-18T04:40:09.196Z,9.60
2019-05-18T04:42:38.324Z,9.47
2019-05-18T04:45:15.898Z,10.20
2019-05-18T04:47:48.438Z,10.00
2019-05-18T04:50:23.846Z,9.80
2019-05-18T04:52:53.015Z,10.47
2019-05-18T04:55:28.571Z,10.17
2019-05-18T04:58:03.906Z,9.20
2019-05-18T05:00:39.334Z,10.10
2019-05-18T05:03:08.468Z,9.90
2019-05-18T05:05:44.710Z,10.53
2019-05-18T05:08:13.998Z,10.20
2019-05-18T05:10:49.339Z,9.87
2019-05-18T05:13:18.517Z,9.90
2019-05-18T05:15:53.962Z,8.17
2019-05-18T05:18:23.187Z,10.17
2019-05-18T05:20:59.135Z,8.23
2019-05-18T05:23:28.274Z,11.07
2019-05-18T05:25:57.471Z,11.63
2019-05-18T05:28:32.831Z,10.78
2019-05-18T05:31:09.098Z,9.45
2019-05-18T05:33:44.575Z,9.93
2019-05-18T05:36:13.870Z,10.40
2019-05-18T05:38:49.930Z,9.93
2019-05-18T05:41:19.160Z,9.20
2019-05-18T05:43:48.474Z,9.27
2019-05-18T05:46:23.794Z,10.30
2019-05-18T05:48:59.398Z,9.80
2019-05-18T05:51:28.649Z,10.20
2019-05-18T05:53:57.863Z,8.90
2019-05-18T05:56:33.466Z,9.40
2019-05-18T05:59:09.725Z,10.20
2019-05-18T06:01:46.133Z,9.20
2019-05-18T06:04:15.333Z,10.33
2019-05-18T06:06:44.583Z,11.50
2019-05-18T06:09:20.685Z,10.80
2019-05-18T06:11:52.629Z,10.73
2019-05-18T06:14:28.474Z,9.87
2019-05-18T06:16:57.608Z,10.40
2019-05-18T06:19:26.857Z,9.93
2019-05-18T06:22:02.741Z,10.60
2019-05-18T06:24:31.923Z,10.37
2019-05-18T06:27:07.525Z,10.10
2019-05-18T06:29:43.647Z,10.67
2019-05-18T06:32:26.664Z,10.40
2019-05-18T06:34:55.864Z,10.47
2019-05-18T06:37:32.002Z,11.63
2019-05-18T06:40:01.149Z,11.30
2019-05-18T06:42:30.360Z,10.23
2019-05-18T06:45:06.660Z,9.83
2019-05-18T06:47:35.817Z,9.97
2019-05-18T06:50:13.247Z,11.70
2019-05-18T06:52:42.622Z,12.40
2019-05-18T06:55:12.017Z,11.80
2019-05-18T06:57:47.737Z,11.00
2019-05-18T07:00:23.463Z,10.20
2019-05-18T07:02:59.753Z,11.27
2019-05-18T07:05:29.116Z,10.63
2019-05-18T07:07:58.397Z,10.73
2019-05-18T07:10:34.153Z,9.83
2019-05-18T07:13:03.145Z,11.30
2019-05-18T07:15:32.330Z,11.07
2019-05-18T07:18:08.499Z,10.70
2019-05-18T07:20:37.623Z,10.83
2019-05-18T07:23:13.804Z,10.17
2019-05-18T07:25:43.053Z,10.17
2019-05-18T07:28:12.263Z,10.33
2019-05-18T07:30:48.671Z,11.10
2019-05-18T07:33:17.976Z,10.60
2019-05-18T07:35:54.241Z,9.40
2019-05-18T07:38:23.753Z,10.67
2019-05-18T07:41:00.049Z,8.60
2019-05-18T07:43:29.319Z,9.20
2019-05-18T07:46:04.727Z,9.40
2019-05-18T07:48:33.889Z,9.37
2019-05-18T07:51:09.379Z,9.00
2019-05-18T07:53:38.594Z,8.70
2019-05-18T07:56:14.712Z,8.67
2019-05-18T07:58:44.136Z,8.90
2019-05-18T08:01:26.673Z,9.83
2019-05-18T08:04:11.177Z,8.73
2019-05-18T08:06:53.491Z,8.90
2019-05-18T08:09:23.153Z,9.10
2019-05-18T08:11:59.479Z,9.70
2019-05-18T08:14:28.634Z,8.73
2019-05-18T08:16:57.765Z,10.10
2019-05-18T08:19:33.455Z,9.40
2019-05-18T08:22:05.885Z,9.17
2019-05-18T08:24:41.481Z,9.00
2019-05-18T08:27:10.683Z,9.90
2019-05-18T08:29:48.821Z,9.30
2019-05-18T08:32:25.500Z,9.10
2019-05-18T08:35:00.806Z,9.90
2019-05-18T08:37:30.000Z,9.33
2019-05-18T08:39:59.168Z,9.03
2019-05-18T08:42:34.550Z,9.20
2019-05-18T08:45:03.913Z,8.37
2019-05-18T08:47:39.911Z,8.40
2019-05-18T08:50:10.218Z,9.10
2019-05-18T08:52:46.411Z,9.57
2019-05-18T08:55:15.635Z,9.40
2019-05-18T08:57:51.533Z,10.17
2019-05-18T09:00:27.615Z,8.00
2019-05-18T09:03:03.680Z,8.67
2019-05-18T09:05:32.893Z,9.10
2019-05-18T09:08:08.235Z,8.77
2019-05-18T09:10:40.179Z,8.53
2019-05-18T09:13:09.398Z,9.90
2019-05-18T09:15:46.647Z,9.23
2019-05-18T09:18:15.903Z,9.20
2019-05-18T09:20:52.122Z,9.50
2019-05-18T09:23:21.396Z,9.63
2019-05-18T09:25:57.611Z,8.80
2019-05-18T09:28:26.828Z,9.30
2019-05-18T09:31:02.309Z,8.60
2019-05-18T09:33:38.374Z,9.30
2019-05-18T09:36:13.980Z,8.80
2019-05-18T09:38:43.095Z,9.20
2019-05-18T09:41:18.501Z,7.60
2019-05-18T09:43:47.613Z,9.03
2019-05-18T09:46:23.216Z,10.50
2019-05-18T09:48:52.373Z,10.07
2019-05-18T09:51:27.994Z,8.83
2019-05-18T09:53:57.210Z,8.67
2019-05-18T09:56:33.052Z,9.20
2019-05-18T09:59:02.315Z,11.60
2019-05-18T10:01:44.643Z,9.17
2019-05-18T10:04:13.842Z,9.43
2019-05-18T10:06:50.174Z,8.93
2019-05-18T10:09:19.300Z,11.40
2019-05-18T10:11:55.476Z,9.30
2019-05-18T10:14:24.662Z,10.17
2019-05-18T10:16:56.256Z,9.90
2019-05-18T10:19:32.065Z,8.67
2019-05-18T10:22:01.514Z,8.73
2019-05-18T10:24:37.691Z,9.40
2019-05-18T10:27:06.878Z,8.50
2019-05-18T10:29:42.204Z,9.30
2019-05-18T10:32:18.370Z,9.30
2019-05-18T10:35:02.388Z,9.30
2019-05-18T10:37:31.724Z,9.20
2019-05-18T10:40:07.383Z,8.20
2019-05-18T10:42:36.634Z,8.80
2019-05-18T10:45:14.198Z,9.27
2019-05-18T10:50:39.895Z,8.00
2019-05-18T10:53:09.059Z,8.20
2019-05-18T10:55:45.127Z,9.00
2019-05-18T10:58:17.154Z,8.97
2019-05-18T11:00:54.650Z,7.90
2019-05-18T11:03:31.179Z,7.23
2019-05-18T11:06:10.125Z,6.80
2019-05-18T11:08:39.560Z,7.60
2019-05-18T11:11:15.148Z,8.37
2019-05-18T11:13:44.475Z,8.00
2019-05-18T11:16:23.197Z,7.20
2019-05-18T11:18:53.935Z,7.90
2019-05-18T11:21:31.884Z,9.50
2019-05-18T11:24:02.519Z,8.57
2019-05-18T11:26:31.719Z,8.23
2019-05-18T11:29:07.889Z,7.60
2019-05-18T11:31:37.139Z,7.70
2019-05-18T11:34:19.742Z,7.30
2019-05-18T11:36:49.017Z,6.13
2019-05-18T11:39:25.386Z,7.20
2019-05-18T11:41:54.461Z,5.73
2019-05-18T11:44:30.298Z,5.80
2019-05-18T11:46:59.527Z,5.80
2019-05-18T11:49:35.666Z,5.87
2019-05-18T11:52:04.836Z,4.60
2019-05-18T11:54:37.033Z,4.43
2019-05-18T11:57:13.035Z,4.73
2019-05-18T11:59:42.285Z,4.90
2019-05-18T12:02:17.619Z,3.90
2019-05-18T12:04:53.020Z,3.80
2019-05-18T12:07:29.134Z,3.77
2019-05-18T12:09:58.334Z,3.60
2019-05-18T12:12:34.520Z,3.97
2019-05-18T12:15:03.867Z,4.70
2019-05-18T12:17:39.953Z,3.70
2019-05-18T12:20:09.761Z,4.60
2019-05-18T12:22:39.030Z,2.93
2019-05-18T12:25:16.798Z,3.80
2019-05-18T12:27:46.155Z,2.33
2019-05-18T12:30:22.738Z,2.90
2019-05-18T12:32:59.893Z,2.93
2019-05-18T12:35:44.738Z,3.17
2019-05-18T12:38:13.967Z,2.27
2019-05-18T12:41:09.389Z,2.67
2019-05-18T12:43:38.875Z,3.20
2019-05-18T12:46:14.901Z,3.07
2019-05-18T12:48:44.900Z,3.20
2019-05-18T12:51:21.148Z,3.57
2019-05-18T12:53:50.447Z,2.20
2019-05-18T12:56:26.675Z,2.70
2019-05-18T13:02:43.777Z,2.07
2019-05-18T13:05:21.052Z,2.13
2019-05-18T13:07:57.244Z,2.30
2019-05-18T13:10:26.426Z,2.33
2019-05-18T13:13:02.527Z,2.63
2019-05-18T13:15:31.746Z,2.57
2019-05-18T13:18:07.455Z,3.00
2019-05-18T13:20:36.749Z,3.30
2019-05-18T13:23:13.370Z,2.60
2019-05-18T13:25:42.654Z,2.03
2019-05-18T13:28:19.015Z,3.90
2019-05-18T13:30:48.561Z,3.90
2019-05-18T13:33:24.298Z,3.60
2019-05-18T13:36:01.074Z,3.70
2019-05-18T13:38:37.241Z,3.40
2019-05-18T13:41:06.442Z,2.93
2019-05-18T13:43:42.056Z,3.40
2019-05-18T13:46:11.186Z,3.67
2019-05-18T13:48:47.098Z,4.30
2019-05-18T13:51:16.252Z,4.67
2019-05-18T13:53:52.480Z,4.60
2019-05-18T13:56:21.686Z,4.10
2019-05-18T13:58:52.302Z,4.57
2019-05-18T14:01:27.968Z,3.97
2019-05-18T14:03:57.353Z,3.57
2019-05-18T14:06:40.112Z,3.60
2019-05-18T14:09:09.338Z,3.43
2019-05-18T14:11:38.536Z,3.80
2019-05-18T14:14:14.944Z,3.33
2019-05-18T14:16:44.122Z,3.33
2019-05-18T14:19:19.442Z,4.07
2019-05-18T14:21:48.617Z,3.47
2019-05-18T14:24:27.865Z,2.40
2019-05-18T14:27:00.220Z,2.50
2019-05-18T14:29:37.882Z,2.70
2019-05-18T14:32:07.325Z,3.00
2019-05-18T14:34:42.805Z,3.00
2019-05-18T14:37:19.679Z,3.30
2019-05-18T14:39:55.275Z,3.53
2019-05-18T14:45:34.278Z,4.47
2019-05-18T14:48:03.411Z,4.20
2019-05-18T14:50:39.194Z,4.00
2019-05-18T14:53:09.126Z,3.40
2019-05-18T14:55:44.745Z,4.13
2019-05-18T14:58:13.962Z,4.80
2019-05-18T15:00:56.496Z,4.43
2019-05-18T15:03:25.829Z,4.80
2019-05-18T15:06:01.850Z,4.53
2019-05-18T15:08:31.149Z,5.03
2019-05-18T15:11:00.228Z,4.30
2019-05-18T15:13:36.231Z,3.90
2019-05-18T15:16:05.533Z,2.77
2019-05-18T15:18:41.544Z,2.67
2019-05-18T15:21:10.809Z,2.70
2019-05-18T15:23:47.055Z,2.90
2019-05-18T15:26:16.353Z,3.10
2019-05-18T15:28:52.585Z,3.03
2019-05-18T15:31:23.779Z,2.70
2019-05-18T15:33:59.123Z,3.33
2019-05-18T15:36:28.231Z,3.30
2019-05-18T15:39:03.934Z,3.63
2019-05-18T15:41:33.262Z,2.90
2019-05-18T15:44:12.292Z,3.03
2019-05-18T15:46:48.867Z,2.90
2019-05-18T15:49:27.560Z,3.17
2019-05-18T15:51:56.851Z,3.53
2019-05-18T15:54:36.204Z,3.07
2019-05-18T15:57:04.890Z,2.90
2019-05-18T15:59:40.819Z,2.70
2019-05-18T16:02:23.692Z,3.10
2019-05-18T16:05:18.619Z,3.30
2019-05-18T16:07:47.775Z,3.20
2019-05-18T16:10:24.046Z,2.87
2019-05-18T16:12:53.254Z,3.30
2019-05-18T16:15:29.636Z,3.73
2019-05-18T16:17:58.839Z,4.30
2019-05-18T16:20:31.413Z,4.23
2019-05-18T16:23:07.742Z,4.60
2019-05-18T16:25:37.044Z,4.73
2019-05-18T16:28:14.299Z,4.50
2019-05-18T16:30:43.526Z,5.20
2019-05-18T16:33:18.864Z,5.00
2019-05-18T16:35:48.083Z,4.27
2019-05-18T16:38:43.476Z,4.57
2019-05-18T16:41:12.654Z,7.20
2019-05-18T16:43:42.018Z,13.53
2019-05-18T16:46:17.526Z,5.63
2019-05-18T16:48:55.425Z,7.87
2019-05-18T16:51:32.111Z,15.13
2019-05-18T16:54:01.322Z,17.70
2019-05-18T16:56:37.800Z,18.03
2019-05-18T16:59:14.113Z,28.87
2019-05-18T17:01:50.641Z,23.60
2019-05-18T17:04:19.900Z,26.60
2019-05-18T17:06:56.122Z,32.93
2019-05-18T17:09:25.301Z,28.70
2019-05-18T17:11:54.569Z,28.27
2019-05-18T17:14:31.055Z,26.30
2019-05-18T17:17:00.241Z,22.20
2019-05-18T17:19:35.659Z,17.80
2019-05-18T17:22:05.483Z,24.80
2019-05-18T17:24:41.462Z,9.17
2019-05-18T17:27:11.119Z,9.80
2019-05-18T17:29:46.858Z,13.90
2019-05-18T17:32:15.964Z,11.30
2019-05-18T17:34:51.924Z,8.80
2019-05-18T17:37:21.117Z,9.87
2019-05-18T17:39:57.021Z,8.00
2019-05-18T17:42:26.439Z,4.60
2019-05-18T17:45:02.601Z,6.20
2019-05-18T17:47:38.782Z,5.50
2019-05-18T17:50:15.425Z,5.13
2019-05-18T17:52:44.569Z,6.77
2019-05-18T17:55:26.794Z,5.60
2019-05-18T17:57:55.923Z,4.83
2019-05-18T18:00:38.693Z,4.70
2019-05-18T18:03:07.860Z,4.07
2019-05-18T18:05:43.330Z,6.47
2019-05-18T18:08:12.529Z,4.73
2019-05-18T18:10:41.779Z,6.43
2019-05-18T18:13:18.295Z,6.07
2019-05-18T18:15:47.711Z,6.17
2019-05-18T18:18:23.931Z,6.87
2019-05-18T18:20:53.319Z,6.60
2019-05-18T18:23:29.711Z,5.73
2019-05-18T18:26:00.209Z,5.70
2019-05-18T18:28:29.414Z,5.63
2019-05-18T18:31:05.475Z,6.40
2019-05-18T18:33:34.632Z,9.47
2019-05-18T18:36:10.622Z,5.20
2019-05-18T18:38:39.878Z,4.67
2019-05-18T18:41:15.158Z,6.17
2019-05-18T18:43:44.402Z,6.57
2019-05-18T18:46:20.889Z,5.03
2019-05-18T18:48:57.047Z,6.27
2019-05-18T18:51:32.696Z,6.73
2019-05-18T18:54:03.749Z,6.47
2019-05-18T18:56:39.972Z,8.43
2019-05-18T18:59:09.373Z,7.23
2019-05-18T19:02:11.226Z,7.80
2019-05-18T19:04:40.852Z,9.37
2019-05-18T19:07:18.571Z,40.90
2019-05-18T19:09:47.716Z,9.87
2019-05-18T19:12:23.575Z,17.10
2019-05-18T19:14:52.949Z,11.67
2019-05-18T19:17:28.647Z,13.17
2019-05-18T19:19:57.836Z,11.87
2019-05-18T19:22:37.069Z,12.60
2019-05-18T19:25:06.703Z,13.40
2019-05-18T19:27:35.911Z,16.73
2019-05-18T19:30:11.957Z,17.13
2019-05-18T19:32:41.424Z,18.73
2019-05-18T19:35:19.989Z,11.40
2019-05-18T19:37:49.188Z,7.40
2019-05-18T19:40:25.265Z,9.00
2019-05-18T19:42:54.451Z,8.17
2019-05-18T19:45:30.650Z,6.50
2019-05-18T19:48:06.769Z,6.40
2019-05-18T19:50:42.145Z,7.30
2019-05-18T19:53:11.525Z,5.47
2019-05-18T19:55:40.654Z,5.47
2019-05-18T19:58:16.029Z,7.63
2019-05-18T20:00:51.545Z,5.43
2019-05-18T20:03:27.994Z,7.00
2019-05-18T20:05:57.151Z,7.60
2019-05-18T20:08:33.536Z,15.00
2019-05-18T20:11:02.666Z,11.00
2019-05-18T20:13:31.950Z,14.50
2019-05-18T20:16:08.284Z,11.77
2019-05-18T20:18:37.776Z,9.27
2019-05-18T20:21:13.837Z,11.77
2019-05-18T20:23:43.057Z,9.60
2019-05-18T20:26:19.626Z,13.90
2019-05-18T20:28:48.895Z,13.30
2019-05-18T20:31:24.711Z,35.87
2019-05-18T20:33:53.980Z,10.83
2019-05-18T20:36:30.249Z,8.57
2019-05-18T20:38:59.676Z,7.33
2019-05-18T20:41:35.305Z,6.47
2019-05-18T20:44:04.744Z,11.37
2019-05-18T20:46:41.053Z,7.70
2019-05-18T20:49:16.990Z,8.50
2019-05-18T20:51:52.556Z,5.83
2019-05-18T20:54:22.093Z,10.67
2019-05-18T20:56:57.750Z,7.03
2019-05-18T20:59:27.031Z,5.93
2019-05-18T21:04:58.931Z,10.83
2019-05-18T21:07:34.753Z,11.40
2019-05-18T21:10:04.498Z,9.10
2019-05-18T21:12:33.636Z,8.73
2019-05-18T21:15:09.972Z,7.67
2019-05-18T21:17:41.810Z,8.57
2019-05-18T21:20:22.591Z,7.43
2019-05-18T21:22:51.980Z,8.93
2019-05-18T21:25:28.189Z,7.07
2019-05-18T21:27:57.422Z,6.80
2019-05-18T21:30:26.854Z,5.27
2019-05-18T21:33:02.795Z,6.20
2019-05-18T21:35:32.129Z,5.90
2019-05-18T21:38:10.749Z,6.20
2019-05-18T21:40:39.937Z,6.50
2019-05-18T21:43:15.875Z,7.60
2019-05-18T21:45:45.115Z,6.73
2019-05-18T21:48:20.983Z,6.57
2019-05-18T21:50:56.897Z,8.43
2019-05-18T21:53:34.321Z,12.70
2019-05-18T21:56:05.146Z,9.77
2019-05-18T21:58:41.385Z,7.73
2019-05-18T22:01:17.510Z,8.13
2019-05-18T22:03:53.303Z,9.50
2019-05-18T22:06:22.505Z,14.80
2019-05-18T22:08:58.157Z,13.00
2019-05-18T22:11:27.292Z,11.07
2019-05-18T22:14:02.990Z,9.30
2019-05-18T22:16:33.814Z,8.90
2019-05-18T22:19:02.989Z,9.00
2019-05-18T22:21:38.837Z,8.83
2019-05-18T22:24:07.989Z,7.50
2019-05-18T22:26:45.471Z,7.87
2019-05-18T22:29:33.915Z,8.37
2019-05-18T22:32:10.108Z,8.33
2019-05-18T22:34:39.782Z,7.50
2019-05-18T22:37:09.313Z,8.70
2019-05-18T22:39:45.115Z,8.37
2019-05-18T22:42:19.449Z,7.80
2019-05-18T22:44:54.860Z,7.20
2019-05-18T22:47:24.085Z,7.20
2019-05-18T22:50:00.294Z,9.03
2019-05-18T22:52:29.651Z,9.03
2019-05-18T22:55:05.171Z,8.00
2019-05-18T22:57:34.365Z,8.20
2019-05-18T23:00:17.460Z,8.37
2019-05-18T23:02:46.666Z,10.43
2019-05-18T23:05:22.847Z,8.37
2019-05-18T23:07:51.975Z,9.40
2019-05-18T23:10:27.503Z,8.27
2019-05-18T23:12:56.707Z,8.63
2019-05-18T23:15:25.831Z,7.87
2019-05-18T23:18:01.745Z,8.30
2019-05-18T23:20:31.025Z,9.30
2019-05-18T23:23:07.581Z,8.83
2019-05-18T23:25:36.783Z,7.73
2019-05-18T23:28:12.201Z,8.40
2019-05-18T23:30:41.341Z,9.23
2019-05-18T23:33:16.991Z,8.70
2019-05-18T23:35:46.112Z,8.23
2019-05-18T23:38:22.438Z,9.40
2019-05-18T23:40:51.619Z,9.97
2019-05-18T23:43:27.843Z,9.83
2019-05-18T23:45:57.178Z,15.50
2019-05-18T23:48:33.324Z,12.90
2019-05-18T23:51:09.457Z,12.10
2019-05-18T23:53:44.974Z,10.80
2019-05-18T23:56:14.242Z,12.03
2019-05-18T23:58:51.983Z,10.17
